La Farge, WI (54639)

5:25 AM CDT on August 24, 2016 (GMT -0500)
West Lima, WI | | Change Station

Elev 1276 ft 43.53 °N, 90.55 °W | Updated 14 seconds ago

Mostly Cloudy
Mostly Cloudy
65.5 °F
Feels Like 65.5 °F
N
2.7
Wind Variable Wind from SSW
Gusts 4.9 mph

Today
High -- | Low -- °F
--% Chance of Precip.
Yesterday
High -- | Low -- °F
Precip. -- in
Pressure 29.86 in
Visibility 10.0 miles
Clouds Mostly Cloudy 400 ft
Dew Point 65 °F
Humidity 99%
Rainfall 1.91 in
Snow Depth Not available.
6:17 AM 7:50 PM
Waning Gibbous, 58% visible
METAR KY51 241015Z AUTO 16008G15KT 10SM BKN004 18/18 A2986 RMK AO1 T01800180
Pressure 29.86 in
Visibility 10.0 miles
Clouds Mostly Cloudy 400 ft
Dew Point 65 °F
Humidity 99%
Rainfall 1.91 in
Snow Depth Not available.
6:17 AM 7:50 PM
Waning Gibbous, 58% visible
METAR KY51 241015Z AUTO 16008G15KT 10SM BKN004 18/18 A2986 RMK AO1 T01800180

10-Day Weather Forecast

Almanac

Astronomy

Aug. 24, 2016 Rise Set
Actual Time
Civil Twilight
Nautical Twilight
Astronomical Twilight
Moon
Length of Visible Light
Length of Day
Tomorrow will be .
, % of the Moon is Illuminated

Today's Extremes

State Highs State Lows

Community

WunderPhotos

Upload Photos

1,934,560 photos uploaded!

WunderBlog® & News

Nearby

Air Quality

  Air Quality AQ Index Pollutant
Not available.

Snow Depth

Station Depth Elevation

Earthquake Activity

City Distance Mag. Time & Date
Minimum magnitude displayed is 2.5.

Coastal Water Temperatures

Place Temperature

Stations

Nearby Weather Stations

Station Location Temp. Windchill Dew Point Humidity Wind Precip. Elev Updated Type
                   

Watches & Warnings

Flash Flood Watch
Issued: 1:26 AM CDT Aug. 24, 2016 – National Weather Service

... Flash Flood Watch in effect until noon CDT today...

The National Weather Service in La Crosse has issued a

* Flash Flood Watch for a portion of southwest Wisconsin...
including the following areas... Crawford... Richland and
Vernon.

* Until noon CDT today

* thunderstorms with heavy rainfall of 2 to 3 inches... locally
higher amounts possible.

* Be especially cautious at night when its harder to recognize
flooding.

Precautionary/preparedness actions...

A Flash Flood Watch means that conditions may develop that lead
to flash flooding. Flash flooding is a very dangerous situation.

You should monitor later forecasts and be prepared to take action
should flash flood warnings be issued.



Wetenkamp